Time;durP1;ratioP1;P1;durP2;ratioP2;P2;SDS_P1;SDS_P2;PMS_P1;PMS_P2;Temp;Humidity;BMP_temperature;BMP_pressure;BME280_temperature;BME280_humidity;BME280_pressure;Samples;Min_cycle;Max_cycle;Signal;HPM_P1;HPM_P2
2023/01/28 00:02:14;;;;;;;6.80;6.20;;;;;;;;;;5177078;28;20035;-74
2023/01/28 00:04:45;;;;;;;7.10;6.40;;;;;;;;;;5177952;28;20079;-75
2023/01/28 00:07:18;;;;;;;6.18;5.43;;;;;;;;;;5178196;28;20030;-75
2023/01/28 00:09:49;;;;;;;5.85;5.35;;;;;;;;;;5176281;28;20080;-74
2023/01/28 00:12:20;;;;;;;6.78;6.15;;;;;;;;;;5177912;28;20034;-74
2023/01/28 00:14:51;;;;;;;5.93;5.35;;;;;;;;;;5177812;28;20027;-74
2023/01/28 00:17:22;;;;;;;6.28;5.60;;;;;;;;;;5177048;28;20023;-73
2023/01/28 00:19:54;;;;;;;6.13;5.53;;;;;;;;;;5177663;28;20023;-74
2023/01/28 00:22:25;;;;;;;6.95;6.22;;;;;;;;;;5177556;28;20080;-74
2023/01/28 00:24:56;;;;;;;6.13;5.53;;;;;;;;;;5177185;28;20072;-73
2023/01/28 00:27:27;;;;;;;6.57;5.88;;;;;;;;;;5177591;28;20033;-74
2023/01/28 00:29:59;;;;;;;7.13;6.43;;;;;;;;;;5177143;28;20370;-73
2023/01/28 00:32:30;;;;;;;7.75;7.05;;;;;;;;;;5177539;28;20026;-74
2023/01/28 00:35:01;;;;;;;6.93;6.25;;;;;;;;;;5177657;28;20033;-74
2023/01/28 00:37:33;;;;;;;7.07;6.38;;;;;;;;;;5176964;28;20011;-73
2023/01/28 00:40:04;;;;;;;7.72;7.00;;;;;;;;;;5177314;28;20039;-73
2023/01/28 00:42:36;;;;;;;7.28;6.57;;;;;;;;;;5177660;28;20030;-73
2023/01/28 00:45:07;;;;;;;6.45;5.85;;;;;;;;;;5176575;28;20030;-73
2023/01/28 00:47:38;;;;;;;6.82;5.75;;;;;;;;;;5177416;28;20019;-73
2023/01/28 00:50:10;;;;;;;6.63;5.88;;;;;;;;;;5177385;28;20050;-74
2023/01/28 00:52:41;;;;;;;7.55;6.78;;;;;;;;;;5176708;28;20030;-75
2023/01/28 00:55:12;;;;;;;7.32;6.63;;;;;;;;;;5177202;28;20389;-75
2023/01/28 00:57:44;;;;;;;7.32;6.38;;;;;;;;;;5177256;28;20023;-74
2023/01/28 01:00:15;;;;;;;6.85;6.15;;;;;;;;;;5176480;28;20027;-75
2023/01/28 01:02:46;;;;;;;6.65;5.95;;;;;;;;;;5176935;28;20118;-75
2023/01/28 01:05:18;;;;;;;7.45;6.65;;;;;;;;;;5176331;28;20098;-73
2023/01/28 01:07:49;;;;;;;6.07;5.47;;;;;;;;;;5177235;28;20023;-73
2023/01/28 01:10:20;;;;;;;6.72;6.05;;;;;;;;;;5176951;28;20096;-73
2023/01/28 01:12:51;;;;;;;6.10;5.50;;;;;;;;;;5176252;28;20019;-73
2023/01/28 01:15:23;;;;;;;6.18;5.57;;;;;;;;;;5176942;28;20033;-73
2023/01/28 01:17:54;;;;;;;6.47;4.97;;;;;;;;;;5177118;28;20027;-73
2023/01/28 01:20:26;;;;;;;5.72;5.13;;;;;;;;;;5175324;28;20096;-73
2023/01/28 01:22:58;;;;;;;9.35;5.97;;;;;;;;;;5177280;28;20023;-73
2023/01/28 01:25:29;;;;;;;5.82;5.13;;;;;;;;;;5176488;28;20037;-73
2023/01/28 01:28:00;;;;;;;6.90;6.20;;;;;;;;;;5175985;28;20076;-74
2023/01/28 01:30:31;;;;;;;6.63;5.90;;;;;;;;;;5176951;28;20580;-74
2023/01/28 01:33:02;;;;;;;6.85;6.15;;;;;;;;;;5176688;28;20049;-74
2023/01/28 01:35:34;;;;;;;6.95;6.25;;;;;;;;;;5175949;28;20053;-73
2023/01/28 01:38:05;;;;;;;5.78;5.18;;;;;;;;;;5176693;28;20095;-74
2023/01/28 01:40:36;;;;;;;5.75;5.15;;;;;;;;;;5175578;28;20034;-73
2023/01/28 01:43:18;;;;;;;6.32;5.72;;;;;;;;;;5176755;28;20026;-73
2023/01/28 01:45:52;;;;;;;6.93;6.22;;;;;;;;;;5176527;28;20053;-73
2023/01/28 01:48:23;;;;;;;6.43;5.80;;;;;;;;;;5175486;28;20027;-74
2023/01/28 01:50:59;;;;;;;6.78;6.07;;;;;;;;;;5176521;28;20031;-73
2023/01/28 01:53:31;;;;;;;8.32;6.65;;;;;;;;;;5176615;28;20058;-73
2023/01/28 01:56:04;;;;;;;6.90;6.18;;;;;;;;;;5175533;28;20054;-74
2023/01/28 01:58:37;;;;;;;7.00;6.30;;;;;;;;;;5176290;28;20492;-73
2023/01/28 02:01:09;;;;;;;7.30;6.40;;;;;;;;;;5176131;28;20035;-73
2023/01/28 02:03:50;;;;;;;7.25;6.45;;;;;;;;;;5175150;28;20178;-73
2023/01/28 02:06:21;;;;;;;6.13;5.53;;;;;;;;;;5176393;28;20406;-73
2023/01/28 02:08:54;;;;;;;6.68;5.97;;;;;;;;;;5175496;28;20118;-73
2023/01/28 02:11:27;;;;;;;6.82;6.07;;;;;;;;;;5175928;28;20374;-73
2023/01/28 02:14:01;;;;;;;7.32;6.60;;;;;;;;;;5176299;28;20055;-74
2023/01/28 02:16:32;;;;;;;6.50;5.78;;;;;;;;;;5175374;28;20413;-75
2023/01/28 02:19:04;;;;;;;6.70;6.10;;;;;;;;;;5176095;28;20027;-75
2023/01/28 02:21:44;;;;;;;6.93;6.25;;;;;;;;;;5175775;28;20037;-74
2023/01/28 02:24:21;;;;;;;7.63;6.28;;;;;;;;;;5175222;28;20023;-74
2023/01/28 02:27:11;;;;;;;7.00;6.28;;;;;;;;;;5176075;28;20034;-73
2023/01/28 02:29:46;;;;;;;7.18;6.47;;;;;;;;;;5175102;28;20031;-74
2023/01/28 02:32:24;;;;;;;6.88;6.18;;;;;;;;;;5177482;28;20023;-73
2023/01/28 02:35:02;;;;;;;7.43;6.65;;;;;;;;;;5179780;28;20018;-73
2023/01/28 02:37:37;;;;;;;6.97;6.20;;;;;;;;;;5178616;28;20019;-73
2023/01/28 02:40:33;;;;;;;7.30;6.60;;;;;;;;;;5179406;28;20023;-74
2023/01/28 02:43:04;;;;;;;6.57;5.82;;;;;;;;;;5186271;28;20018;-74
2023/01/28 02:48:25;;;;;;;7.28;5.90;;;;;;;;;;5179273;28;20501;-74
2023/01/28 02:51:00;;;;;;;6.68;5.97;;;;;;;;;;5178924;28;20063;-74
2023/01/28 02:53:45;;;;;;;6.18;5.57;;;;;;;;;;5179057;28;20023;-74
2023/01/28 02:56:28;;;;;;;6.65;5.65;;;;;;;;;;5179198;28;20149;-75
2023/01/28 02:59:29;;;;;;;6.13;5.53;;;;;;;;;;5178579;28;20023;-74
2023/01/28 03:01:58;;;;;;;5.40;4.90;;;;;;;;;;5178630;28;20385;-74
2023/01/28 03:04:32;;;;;;;6.93;6.00;;;;;;;;;;5178812;28;20034;-75
2023/01/28 03:07:05;;;;;;;7.20;5.50;;;;;;;;;;5178195;28;20043;-75
2023/01/28 03:09:39;;;;;;;6.20;5.13;;;;;;;;;;5178940;28;20134;-74
2023/01/28 03:38:21;;;;;;;5.43;4.85;;;;;;;;;;5178824;28;20035;-73
2023/01/28 03:40:56;;;;;;;5.70;5.10;;;;;;;;;;5177675;28;20401;-74
2023/01/28 03:43:28;;;;;;;4.75;4.32;;;;;;;;;;5177804;28;20023;-74
2023/01/28 03:45:59;;;;;;;5.38;4.88;;;;;;;;;;5178377;28;20030;-75
2023/01/28 03:48:31;;;;;;;4.80;4.32;;;;;;;;;;5177747;28;20105;-73
2023/01/28 03:51:02;;;;;;;5.00;4.50;;;;;;;;;;5178190;28;20022;-75
2023/01/28 03:53:33;;;;;;;5.07;4.57;;;;;;;;;;5178101;28;20462;-73
2023/01/28 03:56:05;;;;;;;4.45;4.05;;;;;;;;;;5177216;28;20054;-74
2023/01/28 03:58:45;;;;;;;4.97;4.47;;;;;;;;;;5177840;28;20030;-74
2023/01/28 04:01:16;;;;;;;5.20;4.55;;;;;;;;;;5177408;28;20045;-74
2023/01/28 04:03:47;;;;;;;4.55;4.15;;;;;;;;;;5177872;28;20043;-73
2023/01/28 04:06:18;;;;;;;4.75;4.30;;;;;;;;;;5177893;28;20446;-74
2023/01/28 04:08:53;;;;;;;5.65;5.07;;;;;;;;;;5177437;28;20023;-74
2023/01/28 04:11:25;;;;;;;5.82;4.97;;;;;;;;;;5177970;28;20510;-74
2023/01/28 04:13:56;;;;;;;5.82;5.30;;;;;;;;;;5178262;28;20027;-74
2023/01/28 04:16:27;;;;;;;5.22;4.72;;;;;;;;;;5176928;28;20406;-74
2023/01/28 04:18:58;;;;;;;6.25;4.95;;;;;;;;;;5178185;28;20109;-74
2023/01/28 04:21:30;;;;;;;5.70;5.20;;;;;;;;;;5177898;28;20043;-74
2023/01/28 04:24:01;;;;;;;6.43;5.80;;;;;;;;;;5177182;28;20061;-74
2023/01/28 04:26:32;;;;;;;6.60;6.00;;;;;;;;;;5177766;28;20034;-74
2023/01/28 04:29:03;;;;;;;6.35;5.75;;;;;;;;;;5177330;28;20430;-74
2023/01/28 04:31:34;;;;;;;6.55;5.85;;;;;;;;;;5177510;28;20030;-73
2023/01/28 04:34:06;;;;;;;7.20;5.78;;;;;;;;;;5177907;28;20539;-74
2023/01/28 04:36:37;;;;;;;6.25;5.65;;;;;;;;;;5176964;28;20019;-74
2023/01/28 04:39:08;;;;;;;7.35;6.50;;;;;;;;;;5177805;28;20015;-74
2023/01/28 04:41:39;;;;;;;6.00;5.43;;;;;;;;;;5177571;28;20046;-74
2023/01/28 04:44:10;;;;;;;7.30;6.10;;;;;;;;;;5176666;28;20038;-75
2023/01/28 04:46:42;;;;;;;6.47;5.88;;;;;;;;;;5177574;28;20026;-74
2023/01/28 04:49:13;;;;;;;6.40;5.80;;;;;;;;;;5177520;28;20034;-74
2023/01/28 04:51:44;;;;;;;6.72;6.05;;;;;;;;;;5176652;28;20034;-74
2023/01/28 04:54:15;;;;;;;7.57;6.72;;;;;;;;;;5176738;28;20019;-74
2023/01/28 04:56:46;;;;;;;7.95;7.15;;;;;;;;;;5177200;28;20030;-75
2023/01/28 04:59:18;;;;;;;6.85;6.15;;;;;;;;;;5176640;28;20105;-74
2023/01/28 05:01:49;;;;;;;6.50;5.60;;;;;;;;;;5176836;28;20058;-74
2023/01/28 05:04:21;;;;;;;7.22;6.53;;;;;;;;;;5176469;28;20524;-74
2023/01/28 05:06:52;;;;;;;6.60;5.90;;;;;;;;;;5177067;28;20045;-74
2023/01/28 05:09:23;;;;;;;6.43;5.47;;;;;;;;;;5177102;28;20041;-74
2023/01/28 05:11:54;;;;;;;6.97;6.32;;;;;;;;;;5176590;28;20026;-74
2023/01/28 05:14:25;;;;;;;7.00;6.30;;;;;;;;;;5176696;28;20019;-74
2023/01/28 05:16:57;;;;;;;7.05;6.35;;;;;;;;;;5177214;28;20087;-74
2023/01/28 05:19:28;;;;;;;8.73;7.63;;;;;;;;;;5175758;28;20104;-74
2023/01/28 05:21:59;;;;;;;7.28;6.57;;;;;;;;;;5177081;28;20034;-75
2023/01/28 05:24:30;;;;;;;7.00;6.30;;;;;;;;;;5177109;28;20019;-74
2023/01/28 05:27:01;;;;;;;6.22;5.63;;;;;;;;;;5176107;28;20374;-74
2023/01/28 05:29:33;;;;;;;7.70;6.90;;;;;;;;;;5176708;28;20106;-75
2023/01/28 05:32:04;;;;;;;8.20;6.43;;;;;;;;;;5176639;28;20075;-75
2023/01/28 05:34:35;;;;;;;7.85;6.47;;;;;;;;;;5176021;28;20019;-74
2023/01/28 05:37:06;;;;;;;7.55;6.78;;;;;;;;;;5176709;28;20027;-74
2023/01/28 05:39:37;;;;;;;7.60;6.45;;;;;;;;;;5175824;28;20068;-75
2023/01/28 05:42:09;;;;;;;7.10;6.40;;;;;;;;;;5176728;28;20152;-75
2023/01/28 05:44:40;;;;;;;7.85;7.05;;;;;;;;;;5176720;28;20022;-75
2023/01/28 05:47:11;;;;;;;7.55;6.75;;;;;;;;;;5175678;28;20050;-74
2023/01/28 05:49:42;;;;;;;7.55;6.50;;;;;;;;;;5176519;28;20370;-74
2023/01/28 05:52:14;;;;;;;7.32;6.50;;;;;;;;;;5176546;28;20022;-74
2023/01/28 05:54:45;;;;;;;6.55;5.95;;;;;;;;;;5175518;28;20033;-74
2023/01/28 05:57:16;;;;;;;7.82;6.55;;;;;;;;;;5176639;28;20027;-73
2023/01/28 05:59:47;;;;;;;6.57;5.90;;;;;;;;;;5176279;28;20034;-73
2023/01/28 06:02:18;;;;;;;5.88;5.28;;;;;;;;;;5175265;28;20051;-73
2023/01/28 06:04:50;;;;;;;5.93;5.32;;;;;;;;;;5176231;28;20520;-73
2023/01/28 06:07:22;;;;;;;5.13;4.63;;;;;;;;;;5175317;28;20035;-73
2023/01/28 06:09:54;;;;;;;4.88;4.30;;;;;;;;;;5175569;28;20031;-73
2023/01/28 06:12:25;;;;;;;4.88;4.38;;;;;;;;;;5176197;28;20019;-74
2023/01/28 06:14:56;;;;;;;4.97;4.47;;;;;;;;;;5175795;28;20031;-74
2023/01/28 06:17:27;;;;;;;5.38;4.88;;;;;;;;;;5175595;28;20026;-74
2023/01/28 06:19:58;;;;;;;5.60;4.40;;;;;;;;;;5176203;28;20517;-74
2023/01/28 06:22:30;;;;;;;6.20;4.82;;;;;;;;;;5175108;28;20027;-73
2023/01/28 06:25:01;;;;;;;5.10;4.45;;;;;;;;;;5176068;28;20481;-73
2023/01/28 06:27:32;;;;;;;5.65;5.10;;;;;;;;;;5175854;28;20034;-75
2023/01/28 06:30:03;;;;;;;4.82;4.43;;;;;;;;;;5175045;28;20461;-74
2023/01/28 06:32:35;;;;;;;5.57;4.88;;;;;;;;;;5176096;28;20432;-74
2023/01/28 06:35:07;;;;;;;6.15;4.97;;;;;;;;;;5176023;28;20023;-74
2023/01/28 06:37:38;;;;;;;5.80;5.10;;;;;;;;;;5175130;28;20041;-74
2023/01/28 06:40:10;;;;;;;6.68;5.82;;;;;;;;;;5175741;28;20035;-74
2023/01/28 06:42:41;;;;;;;6.20;5.33;;;;;;;;;;5175168;28;20523;-74
2023/01/28 06:45:12;;;;;;;7.93;5.20;;;;;;;;;;5175930;28;20022;-74
2023/01/28 06:47:43;;;;;;;5.70;5.13;;;;;;;;;;5175724;28;20038;-74
2023/01/28 06:50:15;;;;;;;7.18;5.70;;;;;;;;;;5174955;28;20450;-74
2023/01/28 06:52:46;;;;;;;6.80;5.82;;;;;;;;;;5175729;28;20019;-74
2023/01/28 06:55:17;;;;;;;6.43;5.28;;;;;;;;;;5175577;28;20081;-75
2023/01/28 06:57:48;;;;;;;6.18;5.57;;;;;;;;;;5175067;28;20065;-74
2023/01/28 07:00:20;;;;;;;5.90;5.28;;;;;;;;;;5175559;28;20034;-74
2023/01/28 07:02:54;;;;;;;5.32;4.82;;;;;;;;;;5175412;28;20047;-74
2023/01/28 07:05:25;;;;;;;5.25;4.72;;;;;;;;;;5174800;28;20362;-74
2023/01/28 07:07:56;;;;;;;5.80;5.20;;;;;;;;;;5175968;28;20026;-74
2023/01/28 07:10:28;;;;;;;6.47;5.70;;;;;;;;;;5175324;28;20102;-74
2023/01/28 07:12:59;;;;;;;7.20;5.95;;;;;;;;;;5174721;28;20547;-74
2023/01/28 07:15:30;;;;;;;6.03;5.20;;;;;;;;;;5175374;28;20126;-74
2023/01/28 07:18:02;;;;;;;6.25;5.65;;;;;;;;;;5175397;28;20019;-74
2023/01/28 07:20:33;;;;;;;5.70;5.15;;;;;;;;;;5178769;28;20022;-74
2023/01/28 07:23:04;;;;;;;7.72;5.70;;;;;;;;;;5178851;28;20110;-74
2023/01/28 07:25:35;;;;;;;6.30;5.65;;;;;;;;;;5177821;28;20034;-75
2023/01/28 07:28:06;;;;;;;6.18;5.28;;;;;;;;;;5178612;28;20043;-75
2023/01/28 07:30:37;;;;;;;8.60;5.75;;;;;;;;;;5178215;28;20057;-75
2023/01/28 07:33:09;;;;;;;7.60;6.63;;;;;;;;;;5177715;28;20093;-75
2023/01/28 07:35:40;;;;;;;7.50;6.68;;;;;;;;;;5178619;28;20033;-75
2023/01/28 07:38:11;;;;;;;6.75;6.05;;;;;;;;;;5178564;28;20023;-75
2023/01/28 07:40:44;;;;;;;6.88;6.07;;;;;;;;;;5177650;28;20046;-74
2023/01/28 07:43:15;;;;;;;8.98;6.93;;;;;;;;;;5178259;28;20015;-75
2023/01/28 07:45:46;;;;;;;6.70;6.00;;;;;;;;;;5178484;28;20080;-74
2023/01/28 07:48:17;;;;;;;6.72;6.03;;;;;;;;;;5177661;28;20367;-75
2023/01/28 07:50:50;;;;;;;7.10;6.40;;;;;;;;;;5178224;28;20026;-75
2023/01/28 07:53:21;;;;;;;6.53;5.63;;;;;;;;;;5177439;28;20545;-74
2023/01/28 07:55:59;;;;;;;7.32;5.97;;;;;;;;;;5178132;28;20019;-74
2023/01/28 07:58:33;;;;;;;6.20;5.57;;;;;;;;;;5178214;28;20010;-73
2023/01/28 08:01:04;;;;;;;6.75;5.68;;;;;;;;;;5177406;28;20129;-73
2023/01/28 08:03:35;;;;;;;7.40;6.53;;;;;;;;;;5177945;28;20042;-74
2023/01/28 08:06:06;;;;;;;7.47;6.20;;;;;;;;;;5177759;28;20072;-74
2023/01/28 08:08:38;;;;;;;7.55;6.75;;;;;;;;;;5177356;28;20108;-74
2023/01/28 08:11:12;;;;;;;6.70;5.95;;;;;;;;;;5178194;28;20031;-74
2023/01/28 08:13:43;;;;;;;7.85;7.05;;;;;;;;;;5178224;28;20026;-74
2023/01/28 08:16:14;;;;;;;7.65;6.30;;;;;;;;;;5177007;28;20401;-74
2023/01/28 08:18:45;;;;;;;7.53;6.47;;;;;;;;;;5177931;28;20015;-73
2023/01/28 08:21:17;;;;;;;8.23;6.78;;;;;;;;;;5177131;28;20070;-74
2023/01/28 08:23:48;;;;;;;7.20;6.45;;;;;;;;;;5177600;28;20018;-74
2023/01/28 08:26:19;;;;;;;7.78;6.80;;;;;;;;;;5177944;28;20470;-74
2023/01/28 08:28:50;;;;;;;7.45;6.65;;;;;;;;;;5176497;28;20015;-76
2023/01/28 08:31:22;;;;;;;7.07;6.38;;;;;;;;;;5177349;28;20378;-75
2023/01/28 08:33:53;;;;;;;7.38;6.45;;;;;;;;;;5177693;28;20022;-74
2023/01/28 08:36:24;;;;;;;7.50;6.70;;;;;;;;;;5176376;28;20019;-75
2023/01/28 08:38:55;;;;;;;8.52;7.07;;;;;;;;;;5177686;28;20037;-75
2023/01/28 08:41:26;;;;;;;6.80;6.03;;;;;;;;;;5177029;28;20385;-76
2023/01/28 08:43:59;;;;;;;8.93;6.82;;;;;;;;;;5177223;28;20073;-75
2023/01/28 08:46:30;;;;;;;8.48;6.90;;;;;;;;;;5177083;28;20018;-75
2023/01/28 08:49:01;;;;;;;8.02;6.95;;;;;;;;;;5177506;28;20023;-75
2023/01/28 08:51:32;;;;;;;7.38;6.25;;;;;;;;;;5176519;28;20037;-74
2023/01/28 08:54:03;;;;;;;7.20;6.47;;;;;;;;;;5177184;28;20102;-75
2023/01/28 08:56:35;;;;;;;7.38;6.68;;;;;;;;;;5176370;28;20031;-75
2023/01/28 08:59:06;;;;;;;8.48;7.43;;;;;;;;;;5177062;28;20022;-75
2023/01/28 09:01:37;;;;;;;8.45;7.55;;;;;;;;;;5181104;28;20537;-75
2023/01/28 09:04:08;;;;;;;7.57;6.78;;;;;;;;;;5168265;28;20051;-75
2023/01/28 09:06:40;;;;;;;7.53;6.28;;;;;;;;;;5187254;28;20021;-76
2023/01/28 09:09:11;;;;;;;7.60;6.75;;;;;;;;;;5196164;28;20049;-74
2023/01/28 09:11:42;;;;;;;7.60;6.83;;;;;;;;;;5193936;28;20109;-74
2023/01/28 09:14:13;;;;;;;8.68;7.40;;;;;;;;;;5194308;28;20014;-75
2023/01/28 09:16:44;;;;;;;9.27;7.80;;;;;;;;;;5193369;28;20377;-76
2023/01/28 09:19:16;;;;;;;9.65;8.25;;;;;;;;;;5188035;28;20480;-75
2023/01/28 09:21:47;;;;;;;9.98;7.25;;;;;;;;;;5195589;28;20042;-74
2023/01/28 09:24:18;;;;;;;8.04;6.80;;;;;;;;;;5196873;28;20034;-74
2023/01/28 09:26:49;;;;;;;8.15;7.25;;;;;;;;;;5195669;28;20022;-75
2023/01/28 09:29:21;;;;;;;7.15;6.45;;;;;;;;;;5195533;28;20041;-74
2023/01/28 09:31:52;;;;;;;8.95;6.90;;;;;;;;;;5195650;28;20038;-75
2023/01/28 09:34:23;;;;;;;8.05;7.30;;;;;;;;;;5196907;28;20107;-75
2023/01/28 09:36:54;;;;;;;7.50;6.80;;;;;;;;;;5197125;28;20018;-76
2023/01/28 09:39:27;;;;;;;7.90;7.20;;;;;;;;;;5195798;28;20026;-75
2023/01/28 09:41:58;;;;;;;7.22;6.53;;;;;;;;;;5195673;28;20034;-75
2023/01/28 09:44:42;;;;;;;8.10;7.30;;;;;;;;;;5195971;28;20038;-75
2023/01/28 09:47:22;;;;;;;8.95;7.65;;;;;;;;;;5195877;28;20018;-75
2023/01/28 09:49:57;;;;;;;8.38;7.47;;;;;;;;;;5186017;28;20014;-75
2023/01/28 09:52:28;;;;;;;7.28;6.57;;;;;;;;;;5185740;28;20019;-74
2023/01/28 09:55:03;;;;;;;7.57;6.82;;;;;;;;;;5190383;28;20018;-74
2023/01/28 09:57:44;;;;;;;7.03;6.32;;;;;;;;;;5211121;28;20015;-74
2023/01/28 10:00:17;;;;;;;7.78;7.03;;;;;;;;;;5211558;28;20026;-74
2023/01/28 10:03:03;;;;;;;8.10;7.30;;;;;;;;;;5215731;28;20438;-75
2023/01/28 10:05:49;;;;;;;8.18;7.38;;;;;;;;;;5216437;28;20029;-75
2023/01/28 10:08:21;;;;;;;7.97;7.18;;;;;;;;;;5214834;28;20029;-75
2023/01/28 10:11:04;;;;;;;8.10;7.30;;;;;;;;;;5216410;28;20026;-75
2023/01/28 10:13:36;;;;;;;7.57;6.88;;;;;;;;;;5216444;28;20066;-74
2023/01/28 10:16:07;;;;;;;8.07;7.28;;;;;;;;;;5215759;28;20109;-76
2023/01/28 10:18:39;;;;;;;7.16;6.56;;;;;;;;;;5216748;28;20097;-74
2023/01/28 10:21:14;;;;;;;7.53;6.82;;;;;;;;;;5215993;28;20034;-75
2023/01/28 10:23:50;;;;;;;7.50;6.70;;;;;;;;;;5216377;28;20037;-75
2023/01/28 10:26:26;;;;;;;7.85;6.95;;;;;;;;;;5216578;28;20438;-75
2023/01/28 10:29:01;;;;;;;7.40;6.70;;;;;;;;;;5216048;28;20026;-75
2023/01/28 10:31:35;;;;;;;6.55;5.95;;;;;;;;;;5216240;28;20026;-74
2023/01/28 10:34:08;;;;;;;6.70;5.80;;;;;;;;;;5216372;28;20113;-74
2023/01/28 10:36:39;;;;;;;6.32;5.72;;;;;;;;;;5215503;28;20022;-74
2023/01/28 10:39:13;;;;;;;6.57;5.97;;;;;;;;;;5216052;28;20086;-75
2023/01/28 10:41:44;;;;;;;5.68;5.18;;;;;;;;;;5216048;28;20030;-75
2023/01/28 10:44:18;;;;;;;5.70;5.20;;;;;;;;;;5215399;28;20018;-74
2023/01/28 10:46:50;;;;;;;6.68;5.90;;;;;;;;;;5215523;28;20022;-74
2023/01/28 10:49:29;;;;;;;5.85;5.25;;;;;;;;;;5215364;28;20461;-73
2023/01/28 10:52:09;;;;;;;6.28;5.68;;;;;;;;;;5216182;28;20465;-74
2023/01/28 10:54:40;;;;;;;6.25;5.63;;;;;;;;;;5219045;28;20018;-74
2023/01/28 10:57:14;;;;;;;5.63;5.07;;;;;;;;;;5218662;28;20467;-74
2023/01/28 10:59:48;;;;;;;6.75;6.07;;;;;;;;;;5219564;28;20018;-74
2023/01/28 11:02:22;;;;;;;7.20;5.95;;;;;;;;;;5219532;28;20097;-74
2023/01/28 11:05:03;;;;;;;7.10;6.28;;;;;;;;;;5218963;28;20022;-75
2023/01/28 11:07:34;;;;;;;7.97;6.32;;;;;;;;;;5219345;28;20113;-75
2023/01/28 11:10:24;;;;;;;6.50;5.80;;;;;;;;;;5218601;28;20093;-76
2023/01/28 11:12:56;;;;;;;6.28;5.68;;;;;;;;;;5218863;28;20100;-79
2023/01/28 11:15:28;;;;;;;6.40;5.47;;;;;;;;;;5218774;28;20366;-77
2023/01/28 11:18:01;;;;;;;6.25;5.65;;;;;;;;;;5219047;28;20018;-76
2023/01/28 11:20:41;;;;;;;6.10;5.50;;;;;;;;;;5219157;28;20109;-76
2023/01/28 11:23:20;;;;;;;6.10;5.47;;;;;;;;;;5218955;28;20018;-76
2023/01/28 11:25:59;;;;;;;7.07;6.15;;;;;;;;;;5218517;28;20100;-76
2023/01/28 11:28:30;;;;;;;7.47;5.32;;;;;;;;;;5218954;28;20053;-76
2023/01/28 11:31:02;;;;;;;8.43;6.43;;;;;;;;;;5219107;28;20481;-75
2023/01/28 11:33:38;;;;;;;8.23;7.05;;;;;;;;;;5218457;28;20479;-73
2023/01/28 11:36:14;;;;;;;7.93;6.20;;;;;;;;;;5219026;28;20024;-74
2023/01/28 11:38:51;;;;;;;8.70;6.85;;;;;;;;;;5217941;28;20453;-74
2023/01/28 11:41:25;;;;;;;7.90;6.60;;;;;;;;;;5218928;28;20040;-74
2023/01/28 11:43:57;;;;;;;6.55;5.70;;;;;;;;;;5219288;28;20113;-74
2023/01/28 11:46:37;;;;;;;7.43;5.82;;;;;;;;;;5217710;28;20022;-75
2023/01/28 11:49:14;;;;;;;9.88;6.22;;;;;;;;;;5218882;28;20033;-74
2023/01/28 11:52:04;;;;;;;6.95;5.80;;;;;;;;;;5218948;28;20034;-75
2023/01/28 11:54:35;;;;;;;7.20;6.05;;;;;;;;;;5217983;28;20034;-75
2023/01/28 11:57:06;;;;;;;7.48;6.54;;;;;;;;;;5218705;28;20079;-75
2023/01/28 11:59:40;;;;;;;7.28;6.55;;;;;;;;;;5217824;28;20029;-75
2023/01/28 12:02:44;;;;;;;6.88;5.78;;;;;;;;;;5218524;28;20061;-75
2023/01/28 12:05:23;;;;;;;7.43;6.60;;;;;;;;;;5238834;28;20465;-74
2023/01/28 12:08:13;;;;;;;8.13;7.03;;;;;;;;;;5217607;28;20075;-74
2023/01/28 12:10:51;;;;;;;10.30;6.95;;;;;;;;;;5218593;28;20036;-75
2023/01/28 12:13:41;;;;;;;7.80;7.00;;;;;;;;;;5217689;28;20030;-75
2023/01/28 12:16:18;;;;;;;8.25;6.78;;;;;;;;;;5218472;28;20427;-77
2023/01/28 12:18:52;;;;;;;7.97;6.30;;;;;;;;;;5218471;28;20029;-75
2023/01/28 12:21:46;;;;;;;7.10;6.30;;;;;;;;;;5217050;28;20034;-75
2023/01/28 12:24:36;;;;;;;7.82;6.38;;;;;;;;;;5218083;28;20033;-75
2023/01/28 12:27:25;;;;;;;6.18;5.57;;;;;;;;;;5218106;28;20058;-75
2023/01/28 12:30:15;;;;;;;8.38;7.00;;;;;;;;;;5218490;28;20045;-75
2023/01/28 12:33:05;;;;;;;8.05;6.82;;;;;;;;;;5218164;28;20030;-76
2023/01/28 12:36:06;;;;;;;7.40;6.70;;;;;;;;;;5217737;28;20388;-75
2023/01/28 12:38:47;;;;;;;10.75;6.85;;;;;;;;;;5218039;28;20022;-75
2023/01/28 12:41:23;;;;;;;5.68;5.07;;;;;;;;;;5217795;28;20037;-75
2023/01/28 12:44:08;;;;;;;6.68;5.97;;;;;;;;;;5213702;28;20022;-75
2023/01/28 12:46:41;;;;;;;5.47;4.90;;;;;;;;;;5196010;28;20108;-75
2023/01/28 12:49:18;;;;;;;7.65;6.47;;;;;;;;;;5196681;28;20050;-75
2023/01/28 12:51:49;;;;;;;7.10;6.40;;;;;;;;;;5197570;28;20019;-75
2023/01/28 12:54:26;;;;;;;7.20;6.30;;;;;;;;;;5196983;28;20027;-76
2023/01/28 12:56:57;;;;;;;9.52;6.57;;;;;;;;;;5197206;28;20075;-75
2023/01/28 12:59:32;;;;;;;7.55;6.75;;;;;;;;;;5197081;28;20026;-75
2023/01/28 13:02:12;;;;;;;8.18;6.75;;;;;;;;;;5197152;28;20029;-76
2023/01/28 13:04:49;;;;;;;6.80;5.75;;;;;;;;;;5196759;28;20096;-76
2023/01/28 13:07:24;;;;;;;5.82;5.22;;;;;;;;;;5197488;28;20538;-76
2023/01/28 13:10:04;;;;;;;5.28;4.53;;;;;;;;;;5196669;28;20068;-76
2023/01/28 13:12:37;;;;;;;6.47;5.30;;;;;;;;;;5197188;28;20022;-76
2023/01/28 13:15:11;;;;;;;8.23;7.43;;;;;;;;;;5196730;28;20023;-76
2023/01/28 13:17:59;;;;;;;6.78;6.07;;;;;;;;;;5196049;28;20022;-76
2023/01/28 13:20:47;;;;;;;6.80;4.93;;;;;;;;;;5196581;28;20026;-74
2023/01/28 13:23:39;;;;;;;5.97;5.22;;;;;;;;;;5197045;28;20023;-74
2023/01/28 13:26:19;;;;;;;6.20;5.18;;;;;;;;;;5196937;28;20026;-75
2023/01/28 13:28:51;;;;;;;7.28;4.35;;;;;;;;;;5196792;28;20034;-75
2023/01/28 13:31:23;;;;;;;6.25;4.40;;;;;;;;;;5196264;28;20026;-75
2023/01/28 13:33:54;;;;;;;6.75;4.53;;;;;;;;;;5196982;28;20102;-75
2023/01/28 13:36:29;;;;;;;4.90;4.40;;;;;;;;;;5196377;28;20046;-74
2023/01/28 13:39:05;;;;;;;5.10;3.90;;;;;;;;;;5195696;28;20048;-74
2023/01/28 13:41:40;;;;;;;4.93;4.43;;;;;;;;;;5196522;28;20418;-74
2023/01/28 13:44:24;;;;;;;5.80;4.07;;;;;;;;;;5196517;28;20346;-73
2023/01/28 13:46:57;;;;;;;5.30;4.43;;;;;;;;;;5195459;28;20034;-74
2023/01/28 13:49:47;;;;;;;5.50;4.40;;;;;;;;;;5188730;28;20655;-75
2023/01/28 13:52:18;;;;;;;4.28;3.88;;;;;;;;;;5194386;28;20170;-75
2023/01/28 13:54:50;;;;;;;4.72;3.98;;;;;;;;;;5199726;28;20467;-74
2023/01/28 13:57:40;;;;;;;3.42;2.96;;;;;;;;;;5187875;28;20026;-75
2023/01/28 14:00:14;;;;;;;3.47;2.67;;;;;;;;;;5194633;28;20019;-74
2023/01/28 14:03:07;;;;;;;3.95;3.55;;;;;;;;;;5194451;28;20135;-75
2023/01/28 14:05:39;;;;;;;3.65;3.15;;;;;;;;;;5195030;28;20046;-74
2023/01/28 14:08:16;;;;;;;6.93;3.58;;;;;;;;;;5193804;28;20065;-74
2023/01/28 14:10:49;;;;;;;5.82;3.88;;;;;;;;;;5194500;28;20389;-74
2023/01/28 14:13:48;;;;;;;5.90;3.35;;;;;;;;;;5194378;28;20370;-74
2023/01/28 14:16:22;;;;;;;4.72;3.05;;;;;;;;;;5194873;28;20037;-75
2023/01/28 14:18:55;;;;;;;3.90;3.45;;;;;;;;;;5194914;28;20054;-75
2023/01/28 14:21:27;;;;;;;4.30;3.70;;;;;;;;;;5193490;28;20037;-75
2023/01/28 14:23:58;;;;;;;4.07;3.15;;;;;;;;;;5184218;28;20031;-75
2023/01/28 14:26:42;;;;;;;3.70;3.30;;;;;;;;;;5173785;28;20101;-75
2023/01/28 14:29:31;;;;;;;4.00;3.40;;;;;;;;;;5182948;28;20030;-75
2023/01/28 14:32:03;;;;;;;5.28;3.88;;;;;;;;;;5174373;28;20019;-76
2023/01/28 14:34:35;;;;;;;5.50;4.22;;;;;;;;;;5173953;28;20358;-75
2023/01/28 14:37:08;;;;;;;4.00;3.60;;;;;;;;;;5174513;28;20019;-75
2023/01/28 14:39:45;;;;;;;4.68;3.88;;;;;;;;;;5173904;28;20019;-75
2023/01/28 14:42:21;;;;;;;4.38;3.15;;;;;;;;;;5173345;28;20042;-75
2023/01/28 14:45:04;;;;;;;5.68;3.20;;;;;;;;;;5174445;28;20389;-75
2023/01/28 14:48:03;;;;;;;3.47;3.13;;;;;;;;;;5173557;28;20109;-75
2023/01/28 14:50:43;;;;;;;3.88;3.17;;;;;;;;;;5203952;28;20088;-75
2023/01/28 14:53:34;;;;;;;5.15;3.53;;;;;;;;;;5174375;28;20434;-75
2023/01/28 14:56:08;;;;;;;3.22;2.85;;;;;;;;;;5185996;28;20077;-75
2023/01/28 14:58:48;;;;;;;3.65;2.95;;;;;;;;;;5174251;28;20096;-75
2023/01/28 15:01:19;;;;;;;3.20;2.90;;;;;;;;;;5173982;28;20034;-75
2023/01/28 15:03:50;;;;;;;4.94;3.02;;;;;;;;;;5173307;28;20046;-75
2023/01/28 15:06:23;;;;;;;3.42;3.13;;;;;;;;;;5175960;28;20022;-75
2023/01/28 15:09:04;;;;;;;4.25;3.35;;;;;;;;;;5205889;28;20021;-75
2023/01/28 15:11:38;;;;;;;3.60;3.30;;;;;;;;;;5192502;28;20685;-75
2023/01/28 15:14:18;;;;;;;4.30;3.85;;;;;;;;;;5189827;28;20054;-75
2023/01/28 15:16:50;;;;;;;5.22;4.07;;;;;;;;;;5191792;28;20027;-75
2023/01/28 15:19:25;;;;;;;5.18;3.92;;;;;;;;;;5193786;28;20026;-75
2023/01/28 15:21:57;;;;;;;6.57;3.53;;;;;;;;;;5194164;28;20392;-75
2023/01/28 15:24:30;;;;;;;4.90;2.60;;;;;;;;;;5212426;28;20037;-75
2023/01/28 15:27:01;;;;;;;4.18;3.05;;;;;;;;;;5198474;28;20034;-75
2023/01/28 15:29:35;;;;;;;3.95;3.35;;;;;;;;;;5193575;28;20029;-75
2023/01/28 15:32:18;;;;;;;4.38;3.30;;;;;;;;;;5193493;28;20121;-75
2023/01/28 15:34:49;;;;;;;6.32;4.18;;;;;;;;;;5194200;28;20018;-75
2023/01/28 15:37:21;;;;;;;5.20;4.47;;;;;;;;;;5192162;28;20026;-75
2023/01/28 15:40:04;;;;;;;4.47;3.50;;;;;;;;;;5195421;28;20048;-76
2023/01/28 15:42:37;;;;;;;4.35;3.95;;;;;;;;;;5198781;28;20054;-75
2023/01/28 15:45:19;;;;;;;4.93;3.63;;;;;;;;;;5207266;28;20824;-76
2023/01/28 15:47:52;;;;;;;4.05;3.65;;;;;;;;;;5200512;28;20021;-76
2023/01/28 15:50:24;;;;;;;4.47;3.70;;;;;;;;;;5212486;28;20022;-76
2023/01/28 15:52:56;;;;;;;4.35;3.17;;;;;;;;;;5216912;28;20104;-77
2023/01/28 15:55:41;;;;;;;3.83;3.35;;;;;;;;;;5218682;28;20438;-76